Time;durP1;ratioP1;P1;durP2;ratioP2;P2;SDS_P1;SDS_P2;PMS_P1;PMS_P2;Temp;Humidity;BMP_temperature;BMP_pressure;BME280_temperature;BME280_humidity;BME280_pressure;Samples;Min_cycle;Max_cycle;Signal;HPM_P1;HPM_P2
2024/03/04 00:00:10;;;;;;;17.20;12.50;;;;;;;10.06;72.42;93137.94;520298;28;1081;-71
2024/03/04 00:00:26;;;;;;;18.27;12.63;;;;;;;10.08;72.42;93138.09;521524;28;865;-71
2024/03/04 00:00:41;;;;;;;16.47;12.57;;;;;;;10.10;72.26;93141.03;521724;28;869;-71
2024/03/04 00:00:57;;;;;;;17.45;12.52;;;;;;;10.12;72.16;93140.50;521579;28;758;-71
2024/03/04 00:01:12;;;;;;;17.23;12.43;;;;;;;10.09;72.41;93125.78;521520;28;790;-71
2024/03/04 00:01:28;;;;;;;15.30;12.50;;;;;;;10.14;72.12;93141.44;521725;28;828;-71
2024/03/04 00:01:43;;;;;;;17.50;12.77;;;;;;;10.14;72.59;93137.94;521089;28;1591;-71
2024/03/04 00:01:58;;;;;;;19.13;13.60;;;;;;;10.11;72.61;93136.31;520335;28;782;-71
2024/03/04 00:02:14;;;;;;;18.90;13.30;;;;;;;10.07;72.69;93138.66;521293;28;821;-71
2024/03/04 00:02:31;;;;;;;18.42;12.52;;;;;;;10.03;72.62;93130.75;519492;28;798;-71
2024/03/04 00:02:46;;;;;;;17.52;12.77;;;;;;;9.98;72.75;93134.44;519950;28;888;-72
2024/03/04 00:03:02;;;;;;;16.48;12.70;;;;;;;9.98;72.61;93136.47;521628;28;833;-71
2024/03/04 00:03:17;;;;;;;16.67;12.70;;;;;;;9.94;72.72;93134.06;521557;28;1095;-71
2024/03/04 00:03:33;;;;;;;17.15;12.57;;;;;;;9.92;72.62;93131.84;521623;28;822;-71
2024/03/04 00:03:48;;;;;;;16.97;12.93;;;;;;;9.89;72.69;93126.72;521497;28;751;-71
2024/03/04 00:04:04;;;;;;;15.88;12.63;;;;;;;9.86;72.55;93131.31;519576;28;825;-72
2024/03/04 00:04:19;;;;;;;18.03;12.40;;;;;;;9.83;72.55;93134.44;519584;28;770;-71
2024/03/04 00:04:37;;;;;;;18.07;12.67;;;;;;;9.82;72.90;93133.72;519944;28;1778;-71
2024/03/04 00:04:52;;;;;;;17.65;13.30;;;;;;;9.83;73.27;93134.44;519574;28;1029;-71
2024/03/04 00:05:09;;;;;;;17.20;12.90;;;;;;;9.81;73.28;93134.97;519545;28;798;-71
2024/03/04 00:05:24;;;;;;;17.70;12.75;;;;;;;9.83;73.38;93123.41;519466;28;830;-71
2024/03/04 00:05:39;;;;;;;17.80;13.33;;;;;;;9.63;73.31;93096.75;519628;28;818;-71
2024/03/04 00:05:55;;;;;;;15.85;13.27;;;;;;;9.87;73.52;93132.06;519521;28;850;-71
2024/03/04 00:06:10;;;;;;;15.07;12.33;;;;;;;9.88;73.36;93131.50;519586;28;750;-71
2024/03/04 00:06:26;;;;;;;15.65;12.70;;;;;;;9.89;73.09;93127.47;519627;28;1106;-71
2024/03/04 00:06:41;;;;;;;16.40;13.27;;;;;;;9.90;73.25;93123.41;519382;28;1121;-71
2024/03/04 00:06:58;;;;;;;17.02;12.85;;;;;;;9.90;73.30;93134.44;519566;28;787;-71
2024/03/04 00:07:14;;;;;;;17.73;12.77;;;;;;;9.92;73.04;93131.84;519962;28;1747;-72
2024/03/04 00:07:29;;;;;;;17.02;12.80;;;;;;;9.93;73.29;93129.84;521370;28;960;-72
2024/03/04 00:07:45;;;;;;;15.15;12.95;;;;;;;9.92;73.05;93122.84;519783;28;850;-72
2024/03/04 00:08:03;;;;;;;17.03;13.37;;;;;;;9.86;73.38;93119.53;519547;28;881;-71
2024/03/04 00:08:19;;;;;;;18.70;13.65;;;;;;;9.95;73.03;93132.78;521540;28;945;-71
2024/03/04 00:08:34;;;;;;;17.97;13.40;;;;;;;9.95;73.24;93127.25;521605;28;916;-70
2024/03/04 00:08:51;;;;;;;15.80;12.47;;;;;;;9.96;73.26;93133.53;521592;28;869;-70
2024/03/04 00:09:08;;;;;;;15.25;12.00;;;;;;;9.93;73.46;93130.59;521639;28;928;-71
2024/03/04 00:09:25;;;;;;;14.50;12.00;;;;;;;9.93;73.01;93124.31;519481;28;830;-69
2024/03/04 00:09:40;;;;;;;15.18;12.68;;;;;;;9.93;73.29;93125.06;519516;28;1985;-69
2024/03/04 00:09:56;;;;;;;16.60;12.90;;;;;;;9.93;73.01;93116.78;519840;28;1669;-69
2024/03/04 00:10:11;;;;;;;17.10;12.45;;;;;;;9.95;72.71;93119.00;519587;28;786;-69
2024/03/04 00:10:26;;;;;;;17.63;12.30;;;;;;;9.97;72.29;93132.97;521544;28;806;-69
2024/03/04 00:10:42;;;;;;;18.48;12.75;;;;;;;9.97;72.36;93121.94;521576;28;790;-69
2024/03/04 00:10:58;;;;;;;18.27;13.43;;;;;;;9.99;72.47;93121.38;519614;28;912;-69
2024/03/04 00:11:14;;;;;;;17.10;13.07;;;;;;;9.99;72.43;93122.13;519478;28;975;-69
2024/03/04 00:11:29;;;;;;;17.60;13.35;;;;;;;10.01;72.34;93124.31;520835;28;1005;-69
2024/03/04 00:11:44;;;;;;;19.07;14.53;;;;;;;10.02;72.35;93126.53;521517;28;805;-70
2024/03/04 00:12:00;;;;;;;20.60;14.60;;;;;;;10.03;71.90;93127.97;528440;28;1472;-70
2024/03/04 00:12:15;;;;;;;23.17;15.20;;;;;;;10.06;72.33;93126.16;527981;28;809;-70
2024/03/04 00:12:32;;;;;;;24.80;15.70;;;;;;;10.06;72.28;93126.16;528262;27;1700;-71
2024/03/04 00:12:47;;;;;;;22.20;14.98;;;;;;;10.02;72.15;93123.03;529479;27;941;-71
2024/03/04 00:13:03;;;;;;;18.97;14.10;;;;;;;9.99;72.35;93121.38;529153;27;918;-71
2024/03/04 00:13:20;;;;;;;18.33;13.77;;;;;;;9.97;72.39;93121.19;530224;27;849;-71
2024/03/04 00:13:36;;;;;;;20.02;14.40;;;;;;;9.82;72.59;93106.13;528414;27;960;-72
2024/03/04 00:13:52;;;;;;;19.58;14.13;;;;;;;9.79;72.64;93100.97;524693;28;852;-72
2024/03/04 00:14:07;;;;;;;19.50;13.57;;;;;;;9.99;72.39;93121.38;519571;28;810;-72
2024/03/04 00:14:23;;;;;;;18.90;12.83;;;;;;;10.00;72.59;93126.34;519575;28;1065;-72
2024/03/04 00:14:38;;;;;;;17.48;12.82;;;;;;;9.89;72.48;93107.41;520085;28;993;-72
2024/03/04 00:14:54;;;;;;;16.67;13.53;;;;;;;10.03;72.36;93125.22;521569;28;849;-72
2024/03/04 00:15:10;;;;;;;17.02;14.15;;;;;;;10.06;72.22;93128.91;520844;28;1675;-71
2024/03/04 00:15:25;;;;;;;17.53;13.50;;;;;;;10.07;72.37;93128.34;520765;28;790;-72
2024/03/04 00:15:40;;;;;;;17.48;12.73;;;;;;;10.08;72.16;93129.84;520380;28;858;-73
2024/03/04 00:15:57;;;;;;;18.23;13.80;;;;;;;10.10;71.95;93134.78;519521;28;842;-72
2024/03/04 00:16:13;;;;;;;17.45;13.75;;;;;;;10.11;72.20;93128.03;520570;28;989;-72
2024/03/04 00:16:29;;;;;;;16.10;12.67;;;;;;;10.11;72.00;93122.50;521526;28;778;-72
2024/03/04 00:16:45;;;;;;;16.88;12.70;;;;;;;10.12;72.20;93121.94;521560;28;916;-72
2024/03/04 00:17:00;;;;;;;16.88;12.90;;;;;;;10.12;72.05;93119.19;521637;28;782;-72
2024/03/04 00:17:16;;;;;;;16.53;12.70;;;;;;;10.12;71.78;93124.69;520473;28;1014;-71
2024/03/04 00:17:31;;;;;;;15.80;12.45;;;;;;;10.12;71.77;93130.22;519586;28;862;-72
2024/03/04 00:17:49;;;;;;;16.03;13.07;;;;;;;10.12;71.96;93124.69;519578;28;1680;-72
2024/03/04 00:18:05;;;;;;;18.25;14.25;;;;;;;10.12;72.03;93127.47;520591;28;893;-71
2024/03/04 00:18:20;;;;;;;19.05;14.35;;;;;;;10.12;71.64;93119.19;520462;28;875;-71
2024/03/04 00:18:36;;;;;;;19.45;14.68;;;;;;;10.12;71.85;93123.97;519550;28;877;-71
2024/03/04 00:18:51;;;;;;;19.63;14.67;;;;;;;10.13;71.80;93126.19;520454;28;853;-71
2024/03/04 00:19:06;;;;;;;19.40;14.38;;;;;;;10.14;71.96;93124.13;521471;28;838;-71
2024/03/04 00:19:22;;;;;;;17.93;13.97;;;;;;;10.14;71.55;93124.88;521672;28;790;-71
2024/03/04 00:19:37;;;;;;;16.58;13.52;;;;;;;10.16;71.48;93127.81;521507;28;1072;-71
2024/03/04 00:19:54;;;;;;;17.77;13.73;;;;;;;10.17;71.51;93129.31;520918;28;928;-71
2024/03/04 00:20:10;;;;;;;18.13;13.73;;;;;;;10.16;71.57;93125.06;519579;28;960;-71
2024/03/04 00:20:26;;;;;;;16.83;13.52;;;;;;;10.19;71.19;93125.97;519458;28;834;-71
2024/03/04 00:20:41;;;;;;;17.57;13.27;;;;;;;10.19;71.26;93126.72;519486;28;834;-71
2024/03/04 00:20:58;;;;;;;17.05;13.25;;;;;;;10.20;71.49;93130.94;519481;28;810;-71
2024/03/04 00:21:13;;;;;;;16.67;13.43;;;;;;;10.21;71.23;93124.16;521119;28;1128;-71
2024/03/04 00:21:29;;;;;;;15.50;12.45;;;;;;;10.21;70.95;93121.38;521565;28;956;-71
2024/03/04 00:21:45;;;;;;;15.23;12.25;;;;;;;10.22;71.12;93128.34;521560;28;872;-71
2024/03/04 00:22:01;;;;;;;17.98;13.00;;;;;;;10.22;71.01;93131.13;521423;28;1663;-72
2024/03/04 00:22:17;;;;;;;17.98;13.27;;;;;;;10.20;70.72;93136.44;520872;28;849;-71
2024/03/04 00:22:33;;;;;;;17.23;13.55;;;;;;;10.19;70.76;93128.75;519559;28;833;-71
2024/03/04 00:22:49;;;;;;;16.75;13.40;;;;;;;10.17;70.80;93126.53;521447;28;1099;-71
2024/03/04 00:23:05;;;;;;;15.15;12.65;;;;;;;10.20;70.85;93125.41;521354;28;793;-71
2024/03/04 00:23:20;;;;;;;15.47;12.97;;;;;;;10.21;70.72;93118.63;519522;28;817;-71
2024/03/04 00:23:36;;;;;;;15.55;12.52;;;;;;;10.23;70.81;93123.56;519325;28;893;-71
2024/03/04 00:23:51;;;;;;;15.70;12.13;;;;;;;10.24;70.87;93123.03;519370;28;790;-71
2024/03/04 00:24:06;;;;;;;16.15;12.50;;;;;;;10.26;70.68;93128.00;519377;28;873;-71
2024/03/04 00:24:22;;;;;;;16.10;13.03;;;;;;;10.27;70.84;93123.94;520142;28;926;-71
2024/03/04 00:24:37;;;;;;;17.07;13.07;;;;;;;10.27;70.71;93121.91;521354;28;806;-71
2024/03/04 00:24:53;;;;;;;17.30;13.00;;;;;;;10.30;70.51;93128.34;521468;28;866;-71
2024/03/04 00:25:14;;;;;;;16.23;12.93;;;;;;;10.31;70.63;93127.09;521402;28;774;-70
2024/03/04 00:25:29;;;;;;;14.73;12.70;;;;;;;10.32;70.59;93126.53;521411;28;1181;-70
2024/03/04 00:25:45;;;;;;;14.30;12.30;;;;;;;10.31;70.38;93124.31;521450;28;802;-70
2024/03/04 00:26:01;;;;;;;16.00;12.53;;;;;;;10.26;70.47;93131.50;521221;28;1042;-70
2024/03/04 00:26:16;;;;;;;15.68;12.45;;;;;;;10.25;70.04;93127.25;521472;28;877;-70
2024/03/04 00:26:32;;;;;;;14.57;12.38;;;;;;;10.24;70.43;93123.03;521336;28;817;-70
2024/03/04 00:26:47;;;;;;;16.00;12.20;;;;;;;10.23;70.36;93127.09;520752;28;1676;-70
2024/03/04 00:27:03;;;;;;;16.70;12.20;;;;;;;10.24;70.01;93125.06;520323;28;897;-70
2024/03/04 00:27:20;;;;;;;16.27;11.73;;;;;;;10.24;70.23;93127.81;520280;28;920;-70
2024/03/04 00:27:35;;;;;;;16.55;12.15;;;;;;;10.24;70.24;93127.81;517761;28;1013;-70
2024/03/04 00:27:51;;;;;;;16.63;12.60;;;;;;;10.26;70.07;93125.25;518161;28;770;-70
2024/03/04 00:28:06;;;;;;;17.05;12.93;;;;;;;10.27;70.00;93123.94;517231;28;771;-70
2024/03/04 00:28:22;;;;;;;16.50;13.33;;;;;;;10.27;69.79;93130.19;517198;28;829;-70
2024/03/04 00:28:37;;;;;;;16.23;12.50;;;;;;;10.28;69.77;93126.16;517194;28;1018;-70
2024/03/04 00:28:53;;;;;;;17.00;12.05;;;;;;;10.28;70.16;93126.16;517034;28;806;-70
2024/03/04 00:29:08;;;;;;;17.17;12.43;;;;;;;10.28;69.94;93125.41;517371;28;1018;-70
2024/03/04 00:29:24;;;;;;;17.88;13.18;;;;;;;10.28;70.43;93131.69;517479;28;1804;-69
2024/03/04 00:29:39;;;;;;;18.17;13.60;;;;;;;10.28;70.08;93131.69;520292;28;1918;-70
2024/03/04 00:29:55;;;;;;;17.88;13.70;;;;;;;10.28;70.42;93131.69;520872;28;881;-70
2024/03/04 00:30:11;;;;;;;17.87;13.43;;;;;;;10.27;70.15;93123.94;519334;28;862;-70
2024/03/04 00:30:26;;;;;;;18.35;13.10;;;;;;;10.27;70.35;93127.44;519711;28;1135;-70
2024/03/04 00:30:43;;;;;;;17.77;13.02;;;;;;;10.27;70.53;93127.44;521475;28;798;-70
2024/03/04 00:30:58;;;;;;;17.70;12.77;;;;;;;10.28;70.29;93126.16;521172;28;1056;-70
2024/03/04 00:31:13;;;;;;;16.87;12.37;;;;;;;10.28;70.54;93125.41;521479;28;877;-69
2024/03/04 00:31:30;;;;;;;14.82;12.05;;;;;;;10.29;70.45;93118.59;529573;27;2784;-70
2024/03/04 00:31:46;;;;;;;16.92;12.57;;;;;;;10.30;70.52;93128.34;527733;28;921;-70
2024/03/04 00:32:01;;;;;;;17.02;12.60;;;;;;;10.31;70.05;93124.31;527895;28;868;-70
2024/03/04 00:32:17;;;;;;;15.23;12.20;;;;;;;10.28;69.76;93128.91;527779;28;853;-70
2024/03/04 00:32:32;;;;;;;15.93;12.38;;;;;;;10.24;69.76;93125.81;528998;27;1021;-70
2024/03/04 00:32:48;;;;;;;15.83;12.27;;;;;;;10.16;69.39;93125.06;529977;27;1110;-70
2024/03/04 00:33:03;;;;;;;15.93;12.38;;;;;;;10.15;69.37;93125.63;529945;27;844;-70
2024/03/04 00:33:19;;;;;;;16.33;12.63;;;;;;;10.13;69.47;93128.19;527149;27;1747;-69
2024/03/04 00:33:34;;;;;;;15.10;12.63;;;;;;;10.12;69.92;93124.69;520500;28;802;-70
2024/03/04 00:33:50;;;;;;;13.93;11.87;;;;;;;10.12;69.89;93124.69;519648;28;957;-69
2024/03/04 00:34:05;;;;;;;13.60;11.23;;;;;;;10.11;69.49;93123.25;521257;28;1132;-70
2024/03/04 00:34:21;;;;;;;14.13;11.60;;;;;;;10.10;69.93;93123.75;521054;28;861;-70
2024/03/04 00:34:36;;;;;;;14.60;11.98;;;;;;;10.11;69.81;93125.25;519359;28;786;-70
2024/03/04 00:34:51;;;;;;;14.77;12.37;;;;;;;10.12;69.58;93121.19;519369;28;853;-70
2024/03/04 00:35:10;;;;;;;16.47;12.77;;;;;;;10.12;69.96;93124.69;519366;28;866;-70
2024/03/04 00:35:26;;;;;;;17.70;12.82;;;;;;;10.14;69.74;93127.63;519323;28;864;-70
2024/03/04 00:35:41;;;;;;;16.05;11.93;;;;;;;10.15;69.99;93122.88;519910;28;988;-69
2024/03/04 00:35:56;;;;;;;16.47;12.33;;;;;;;10.16;69.62;93127.06;521279;28;1123;-70
2024/03/04 00:36:12;;;;;;;16.83;12.70;;;;;;;10.16;69.64;93118.81;521422;28;869;-69
2024/03/04 00:36:27;;;;;;;15.57;12.45;;;;;;;10.16;69.96;93119.53;521436;28;853;-70
2024/03/04 00:36:44;;;;;;;15.03;12.40;;;;;;;10.16;69.70;93119.53;521031;28;1730;-70
2024/03/04 00:37:00;;;;;;;16.52;13.20;;;;;;;10.16;69.71;93122.31;520419;28;865;-69
2024/03/04 00:37:16;;;;;;;16.42;13.57;;;;;;;10.16;69.56;93122.31;519627;28;920;-70
2024/03/04 00:37:32;;;;;;;15.32;12.52;;;;;;;10.15;69.88;93112.56;521286;28;989;-69
2024/03/04 00:37:47;;;;;;;15.05;12.15;;;;;;;10.17;69.63;93117.53;521060;28;893;-70
2024/03/04 00:38:03;;;;;;;15.07;12.70;;;;;;;10.17;69.63;93120.28;519020;28;1356;-70
2024/03/04 00:38:18;;;;;;;15.07;12.82;;;;;;;10.17;69.77;93121.03;520655;28;797;-70
2024/03/04 00:38:34;;;;;;;15.27;12.53;;;;;;;10.17;69.55;93118.28;521480;28;833;-70
2024/03/04 00:38:54;;;;;;;16.30;12.63;;;;;;;10.18;69.56;93121.78;521183;28;1287;-70
2024/03/04 00:39:09;;;;;;;15.57;12.75;;;;;;;10.18;69.85;93119.00;522038;28;910;-70
2024/03/04 00:39:24;;;;;;;15.43;12.82;;;;;;;10.14;69.81;93113.84;520744;27;1794;-70
2024/03/04 00:39:41;;;;;;;15.33;12.67;;;;;;;10.10;69.81;93116.22;520175;28;894;-70
2024/03/04 00:39:57;;;;;;;15.18;12.27;;;;;;;9.94;69.84;93098.94;516958;28;1156;-70
2024/03/04 00:40:12;;;;;;;16.07;12.03;;;;;;;10.08;69.86;93118.78;517236;28;894;-70
2024/03/04 00:40:28;;;;;;;15.68;12.05;;;;;;;10.05;69.68;93113.66;517634;28;845;-70
2024/03/04 00:40:43;;;;;;;15.65;12.52;;;;;;;10.03;69.80;93114.19;519434;28;865;-70
2024/03/04 00:40:59;;;;;;;17.03;12.90;;;;;;;10.02;69.80;93118.25;519339;28;861;-70
2024/03/04 00:41:29;;;;;;;17.23;12.40;;;;;;;10.03;70.28;93116.94;519342;28;849;-70
2024/03/04 00:41:47;;;;;;;16.25;13.35;;;;;;;10.04;70.05;93120.44;517434;28;905;-70
2024/03/04 00:42:02;;;;;;;17.85;14.63;;;;;;;10.00;70.03;93118.06;519546;28;822;-70
2024/03/04 00:42:18;;;;;;;17.30;13.93;;;;;;;9.85;70.30;93102.25;519525;28;1085;-70
2024/03/04 00:42:35;;;;;;;17.17;13.18;;;;;;;9.93;70.42;93119.56;519913;28;1794;-70
2024/03/04 00:42:51;;;;;;;16.80;12.70;;;;;;;9.94;70.19;93117.50;521357;28;921;-70
2024/03/04 00:43:06;;;;;;;16.33;12.13;;;;;;;9.91;70.59;93115.88;521200;28;974;-70
2024/03/04 00:43:22;;;;;;;15.60;12.02;;;;;;;9.90;70.56;93117.88;521637;28;826;-70
2024/03/04 00:43:37;;;;;;;15.63;12.43;;;;;;;9.88;70.49;93109.44;519737;28;841;-69
2024/03/04 00:43:53;;;;;;;16.27;12.60;;;;;;;9.83;70.56;93102.06;519438;28;890;-70
2024/03/04 00:44:10;;;;;;;15.90;13.02;;;;;;;9.73;70.63;93095.66;519420;28;830;-70
2024/03/04 00:44:26;;;;;;;15.63;13.05;;;;;;;9.88;70.72;93119.72;520554;28;1112;-70
2024/03/04 00:44:41;;;;;;;16.00;12.43;;;;;;;9.88;70.64;93119.72;521343;28;931;-70
2024/03/04 00:44:57;;;;;;;16.70;12.35;;;;;;;9.89;70.44;93112.94;521517;28;889;-70
2024/03/04 00:45:12;;;;;;;16.27;12.57;;;;;;;9.90;70.59;93117.16;521565;28;825;-70
2024/03/04 00:45:27;;;;;;;17.47;12.57;;;;;;;9.90;70.65;93109.63;521468;28;849;-70
2024/03/04 00:45:43;;;;;;;16.73;12.45;;;;;;;9.91;70.65;93115.88;521554;28;801;-70
2024/03/04 00:45:58;;;;;;;15.10;12.40;;;;;;;9.90;70.52;93115.13;521516;28;853;-70
2024/03/04 00:46:14;;;;;;;15.77;12.52;;;;;;;9.92;70.68;93111.81;521400;28;1076;-71
2024/03/04 00:46:29;;;;;;;15.27;12.77;;;;;;;9.93;70.30;93113.28;521606;28;857;-70
2024/03/04 00:46:45;;;;;;;15.65;12.73;;;;;;;9.94;70.48;93115.50;520894;28;1774;-70
2024/03/04 00:47:01;;;;;;;16.00;12.57;;;;;;;9.95;70.80;93124.50;520404;28;790;-70
2024/03/04 00:47:16;;;;;;;17.15;12.75;;;;;;;9.97;70.38;93115.66;521195;28;1580;-71
2024/03/04 00:47:32;;;;;;;16.85;12.90;;;;;;;9.84;70.22;93100.06;521645;28;821;-70
2024/03/04 00:47:47;;;;;;;15.57;12.37;;;;;;;9.95;70.58;93113.47;521212;28;1116;-70
2024/03/04 00:48:03;;;;;;;15.05;11.90;;;;;;;9.95;70.27;93110.72;519483;28;786;-71
2024/03/04 00:48:19;;;;;;;14.50;12.23;;;;;;;9.96;70.51;93116.97;519446;28;794;-71
2024/03/04 00:48:34;;;;;;;15.83;13.10;;;;;;;9.97;70.67;93118.44;519454;28;917;-70
2024/03/04 00:48:49;;;;;;;15.63;12.90;;;;;;;9.97;70.33;93112.91;519511;28;810;-70
2024/03/04 00:49:05;;;;;;;15.10;12.43;;;;;;;9.96;70.73;93112.19;519345;28;1269;-71
2024/03/04 00:49:20;;;;;;;14.67;11.90;;;;;;;9.97;70.37;93119.16;519314;28;774;-70
2024/03/04 00:49:36;;;;;;;13.90;11.32;;;;;;;9.98;70.37;93117.16;519312;28;1997;-70
2024/03/04 00:49:51;;;;;;;14.43;11.43;;;;;;;9.96;70.28;93119.72;520957;28;771;-71
2024/03/04 00:50:08;;;;;;;13.85;11.30;;;;;;;9.93;70.27;93114.03;519546;28;1109;-70
2024/03/04 00:50:24;;;;;;;14.23;11.55;;;;;;;9.94;70.05;93115.50;519441;28;961;-70
2024/03/04 00:50:39;;;;;;;17.30;11.93;;;;;;;9.94;70.09;93114.75;521320;28;849;-70
2024/03/04 00:50:57;;;;;;;17.33;12.23;;;;;;;9.94;70.12;93117.50;521416;28;848;-71
2024/03/04 00:51:13;;;;;;;16.08;12.55;;;;;;;9.94;69.72;93118.25;521219;28;1007;-71
2024/03/04 00:51:28;;;;;;;18.88;12.73;;;;;;;9.93;69.98;93113.28;521484;28;869;-71
2024/03/04 00:51:44;;;;;;;17.43;12.50;;;;;;;9.92;70.13;93118.06;519534;28;849;-70
2024/03/04 00:51:59;;;;;;;15.55;12.77;;;;;;;9.93;70.06;93113.28;519506;28;877;-70
2024/03/04 00:52:17;;;;;;;17.20;13.10;;;;;;;9.93;69.88;93116.78;519458;28;794;-71
2024/03/04 00:52:32;;;;;;;17.42;13.07;;;;;;;9.93;70.07;93116.06;519898;28;1767;-70
2024/03/04 00:52:48;;;;;;;16.87;13.00;;;;;;;9.93;70.26;93113.28;520891;28;929;-70
2024/03/04 00:53:05;;;;;;;17.33;13.43;;;;;;;9.94;70.51;93109.22;519877;28;829;-71
2024/03/04 00:53:21;;;;;;;14.80;12.07;;;;;;;9.92;70.57;93118.06;519471;28;944;-70
2024/03/04 00:53:36;;;;;;;14.68;12.10;;;;;;;9.92;70.45;93111.81;519495;28;867;-71
2024/03/04 00:53:52;;;;;;;17.70;13.07;;;;;;;9.92;70.43;93109.78;519456;28;767;-71
2024/03/04 00:54:07;;;;;;;17.77;12.95;;;;;;;9.93;70.45;93110.53;519503;28;798;-70
2024/03/04 00:54:23;;;;;;;15.90;12.77;;;;;;;9.94;70.54;93115.50;520656;28;1064;-71
2024/03/04 00:54:40;;;;;;;15.68;12.63;;;;;;;9.95;70.44;93105.19;520119;28;794;-70
2024/03/04 00:54:56;;;;;;;16.33;13.15;;;;;;;9.95;70.84;93110.72;519386;28;858;-70
2024/03/04 00:55:12;;;;;;;15.90;13.07;;;;;;;9.97;70.69;93108.13;519499;28;920;-70
2024/03/04 00:55:29;;;;;;;15.70;12.80;;;;;;;9.98;70.75;93108.88;519488;28;1110;-70
2024/03/04 00:55:44;;;;;;;16.25;12.95;;;;;;;9.98;70.59;93112.38;519474;28;1002;-70
2024/03/04 00:55:59;;;;;;;17.77;13.40;;;;;;;10.00;70.78;93115.31;520660;28;990;-71
2024/03/04 00:56:17;;;;;;;19.23;13.60;;;;;;;10.01;70.94;93111.25;521557;28;865;-70
2024/03/04 00:56:32;;;;;;;18.63;13.35;;;;;;;10.02;70.91;93107.22;521511;28;873;-71
2024/03/04 00:56:48;;;;;;;17.93;13.13;;;;;;;10.04;70.90;93106.66;520871;28;1671;-71
2024/03/04 00:57:04;;;;;;;17.05;13.35;;;;;;;10.04;70.50;93107.41;520408;28;845;-70
2024/03/04 00:57:21;;;;;;;17.25;13.85;;;;;;;10.05;70.92;93105.38;521019;28;818;-71
2024/03/04 00:57:37;;;;;;;16.42;13.45;;;;;;;10.06;70.69;93104.81;520570;28;1088;-71
2024/03/04 00:57:52;;;;;;;16.40;13.10;;;;;;;10.06;70.59;93101.31;520799;28;857;-70
2024/03/04 00:58:08;;;;;;;15.37;12.53;;;;;;;10.07;70.43;93114.56;519303;28;797;-70
2024/03/04 00:58:23;;;;;;;15.23;12.48;;;;;;;10.05;70.10;93105.38;519327;28;1030;-71
2024/03/04 00:58:40;;;;;;;16.33;12.80;;;;;;;10.04;70.37;93104.66;519331;28;798;-70
2024/03/04 00:58:55;;;;;;;17.10;12.90;;;;;;;10.07;70.39;93111.09;519350;28;904;-70
2024/03/04 00:59:12;;;;;;;16.05;12.80;;;;;;;10.08;70.55;93112.53;520137;28;1060;-71
2024/03/04 00:59:28;;;;;;;15.43;12.85;;;;;;;10.08;70.14;93110.53;520838;28;1679;-70
2024/03/04 00:59:43;;;;;;;15.88;12.98;;;;;;;10.07;70.14;93100.75;520384;28;872;-70
2024/03/04 00:59:59;;;;;;;14.35;12.25;;;;;;;10.09;70.25;93105.75;519583;28;881;-70
2024/03/04 01:00:14;;;;;;;15.87;12.27;;;;;;;10.10;70.29;93110.69;521414;28;833;-70
2024/03/04 01:00:30;;;;;;;16.25;12.43;;;;;;;10.09;69.78;93105.75;521032;28;870;-70
2024/03/04 01:00:45;;;;;;;15.82;12.60;;;;;;;10.09;70.14;93100.94;519764;28;997;-70
2024/03/04 01:01:01;;;;;;;17.33;12.80;;;;;;;10.11;69.80;93112.22;521394;28;868;-71
2024/03/04 01:01:17;;;;;;;16.80;13.02;;;;;;;10.09;69.87;93103.69;521344;28;834;-70
2024/03/04 01:01:33;;;;;;;16.80;12.90;;;;;;;10.06;69.77;93104.81;521308;28;853;-70
2024/03/04 01:01:50;;;;;;;16.33;12.18;;;;;;;10.10;69.78;93107.94;517035;28;802;-71
2024/03/04 01:02:05;;;;;;;14.85;12.10;;;;;;;10.08;69.49;93109.78;516997;28;1783;-70
2024/03/04 01:02:21;;;;;;;15.48;12.25;;;;;;;10.06;69.77;93104.81;517576;28;912;-70
2024/03/04 01:02:36;;;;;;;17.27;12.43;;;;;;;10.04;69.71;93107.41;517039;28;857;-70
2024/03/04 01:02:53;;;;;;;17.10;12.60;;;;;;;10.03;69.59;93105.94;517112;28;806;-70
2024/03/04 01:03:08;;;;;;;16.42;12.70;;;;;;;10.02;69.91;93107.22;517098;28;924;-70
2024/03/04 01:03:24;;;;;;;16.98;12.68;;;;;;;10.01;69.73;93110.50;519140;28;817;-70
2024/03/04 01:03:39;;;;;;;16.17;13.00;;;;;;;10.00;70.23;93109.81;519827;28;794;-70
2024/03/04 01:03:55;;;;;;;14.65;12.65;;;;;;;9.99;69.96;93104.81;521380;28;868;-70
2024/03/04 01:04:10;;;;;;;15.23;12.40;;;;;;;9.98;70.07;93111.63;521296;28;1226;-70
2024/03/04 01:04:26;;;;;;;16.85;12.77;;;;;;;9.96;70.54;93112.19;519425;28;814;-70
2024/03/04 01:04:43;;;;;;;17.07;12.70;;;;;;;9.97;70.51;93112.91;519291;28;849;-70
2024/03/04 01:04:59;;;;;;;16.73;12.55;;;;;;;9.98;70.60;93108.88;519207;28;830;-70
2024/03/04 01:05:14;;;;;;;16.58;12.90;;;;;;;9.99;70.40;93110.34;519312;28;833;-70
2024/03/04 01:05:30;;;;;;;16.58;13.10;;;;;;;9.99;70.22;93105.56;519278;28;828;-70
2024/03/04 01:05:46;;;;;;;15.93;12.93;;;;;;;10.01;70.33;93105.75;520715;28;1111;-71
2024/03/04 01:06:02;;;;;;;16.40;13.48;;;;;;;10.03;70.42;93114.19;521357;28;884;-70
2024/03/04 01:06:18;;;;;;;16.73;13.32;;;;;;;10.03;70.23;93108.69;521290;28;841;-70
2024/03/04 01:06:33;;;;;;;16.03;12.67;;;;;;;10.03;70.45;93110.72;521322;28;864;-70
2024/03/04 01:06:52;;;;;;;16.17;12.40;;;;;;;10.03;69.94;93108.69;520573;28;1675;-71
2024/03/04 01:07:08;;;;;;;16.42;12.05;;;;;;;10.03;70.24;93099.69;520859;28;865;-70
2024/03/04 01:07:23;;;;;;;17.10;12.93;;;;;;;10.01;70.29;93110.50;519506;28;1004;-70
2024/03/04 01:07:39;;;;;;;17.27;13.00;;;;;;;10.00;70.27;93109.06;519224;28;901;-70
2024/03/04 01:07:54;;;;;;;15.93;11.80;;;;;;;10.01;69.94;93105.75;519242;28;920;-70
2024/03/04 01:08:09;;;;;;;16.07;12.20;;;;;;;9.99;70.31;93102.81;519320;28;818;-70
2024/03/04 01:08:26;;;;;;;15.75;12.55;;;;;;;9.87;70.35;93096.22;519335;28;873;-71
2024/03/04 01:08:42;;;;;;;15.07;11.70;;;;;;;10.00;69.87;93107.03;519427;28;900;-70
2024/03/04 01:08:57;;;;;;;15.98;11.48;;;;;;;10.01;69.89;93111.25;519146;28;997;-71
2024/03/04 01:09:13;;;;;;;16.25;11.93;;;;;;;10.01;70.21;93105.75;519311;28;765;-70
2024/03/04 01:09:29;;;;;;;16.27;12.25;;;;;;;10.02;69.95;93107.22;519717;28;1538;-71
2024/03/04 01:09:44;;;;;;;16.83;12.40;;;;;;;10.01;69.87;93102.97;520325;28;1914;-70
2024/03/04 01:10:00;;;;;;;16.13;12.15;;;;;;;10.00;69.92;93107.03;520138;28;848;-70
2024/03/04 01:10:16;;;;;;;15.27;11.70;;;;;;;9.99;70.31;93110.34;519253;28;809;-70
2024/03/04 01:10:32;;;;;;;14.60;11.63;;;;;;;9.99;70.18;93107.59;520143;28;1073;-69
2024/03/04 01:10:48;;;;;;;15.30;11.73;;;;;;;9.99;70.19;93105.56;521329;28;904;-70
2024/03/04 01:11:04;;;;;;;15.83;11.80;;;;;;;10.00;70.26;93106.31;521317;28;829;-70
2024/03/04 01:11:19;;;;;;;17.13;12.57;;;;;;;9.99;70.00;93108.31;521430;28;758;-70
2024/03/04 01:11:35;;;;;;;17.95;12.88;;;;;;;9.98;70.26;93106.88;520317;28;841;-70
2024/03/04 01:11:51;;;;;;;17.07;13.27;;;;;;;9.97;69.99;93102.63;519149;28;865;-70
2024/03/04 01:12:07;;;;;;;16.98;13.60;;;;;;;10.00;69.96;93104.28;519887;28;1006;-70
2024/03/04 01:12:22;;;;;;;16.83;13.05;;;;;;;9.99;70.01;93105.56;521008;28;1719;-70
2024/03/04 01:12:38;;;;;;;17.65;12.88;;;;;;;10.02;69.95;93106.47;519930;28;797;-70
2024/03/04 01:12:54;;;;;;;18.17;13.10;;;;;;;10.02;70.13;93109.97;521115;28;1072;-70
2024/03/04 01:13:09;;;;;;;18.17;13.63;;;;;;;10.03;70.32;93113.47;516963;28;2102;-71
2024/03/04 01:13:25;;;;;;;17.77;13.50;;;;;;;10.03;70.10;93099.69;517211;28;873;-71
2024/03/04 01:13:40;;;;;;;16.27;13.07;;;;;;;10.03;70.30;93105.22;519205;28;1088;-71
2024/03/04 01:13:56;;;;;;;16.13;13.07;;;;;;;10.02;70.16;93107.22;519283;28;782;-71
2024/03/04 01:14:12;;;;;;;15.63;13.05;;;;;;;10.03;70.12;93108.69;519377;28;857;-71
2024/03/04 01:14:27;;;;;;;16.42;13.18;;;;;;;10.03;70.62;93097.66;519231;28;830;-71
2024/03/04 01:14:43;;;;;;;15.73;12.77;;;;;;;10.03;70.32;93102.44;517311;28;841;-70
2024/03/04 01:14:58;;;;;;;14.35;12.48;;;;;;;10.03;70.66;93108.69;517785;28;809;-70
2024/03/04 01:15:14;;;;;;;14.60;12.43;;;;;;;10.03;70.60;93103.16;519896;28;1838;-70
2024/03/04 01:15:29;;;;;;;16.05;12.75;;;;;;;10.03;70.44;93099.69;519508;28;1175;-68
2024/03/04 01:15:47;;;;;;;16.17;12.60;;;;;;;10.02;70.22;93104.47;519390;28;770;-70